Limassol, Cyprus
Current Conditions -  °F | °C
As of 6:50 PM on Sunday 23 Nov 2014 (Local Time) from LCRA Reporting Station
Scattered Clouds Scattered Clouds  
Wind Chill: 59°   Ceiling: Unl
Heat Index: 59°   Visibility: 6mi
Dew Point: 50°   Wind: 14mph
Humidity: 72%   Direction: 100°E
Pressure: 29.94"   Gusts: NA
Location:  34.76°N, 32.95°E
Report Text: LCRA 231550Z 10012KT 9999 FEW030CB SCT090 15/10 Q1014 NOSIG
Loading
Personal Weather Stations






























Interactive Weather Map New forecast layout! Learn more

10-Day Weather Forecast

Advertisements
Track Severe Weather on mobile